sensor_id;sensor_type;location;lat;lon;timestamp;P1;durP1;ratioP1;P2;durP2;ratioP2
75718;SDS011;64340;48.534;-3.036;2023-06-22T00:02:00;2.78;;;2.10;;
75718;SDS011;64340;48.534;-3.036;2023-06-22T00:04:26;3.08;;;2.08;;
75718;SDS011;64340;48.534;-3.036;2023-06-22T00:06:52;4.95;;;2.38;;
75718;SDS011;64340;48.534;-3.036;2023-06-22T00:09:18;3.47;;;2.35;;
75718;SDS011;64340;48.534;-3.036;2023-06-22T00:11:44;3.30;;;2.20;;
75718;SDS011;64340;48.534;-3.036;2023-06-22T00:14:10;2.88;;;1.90;;
75718;SDS011;64340;48.534;-3.036;2023-06-22T00:16:36;4.65;;;2.58;;
75718;SDS011;64340;48.534;-3.036;2023-06-22T00:19:02;3.03;;;2.22;;
75718;SDS011;64340;48.534;-3.036;2023-06-22T00:21:28;3.80;;;1.92;;
75718;SDS011;64340;48.534;-3.036;2023-06-22T00:23:55;3.42;;;2.17;;
75718;SDS011;64340;48.534;-3.036;2023-06-22T00:26:22;3.28;;;2.00;;
75718;SDS011;64340;48.534;-3.036;2023-06-22T00:28:48;4.35;;;2.10;;
75718;SDS011;64340;48.534;-3.036;2023-06-22T00:31:14;4.28;;;2.30;;
75718;SDS011;64340;48.534;-3.036;2023-06-22T00:33:40;3.35;;;2.17;;
75718;SDS011;64340;48.534;-3.036;2023-06-22T00:36:05;3.50;;;2.10;;
75718;SDS011;64340;48.534;-3.036;2023-06-22T00:38:33;2.92;;;1.80;;
75718;SDS011;64340;48.534;-3.036;2023-06-22T00:40:59;3.10;;;2.10;;
75718;SDS011;64340;48.534;-3.036;2023-06-22T00:43:25;2.83;;;1.85;;
75718;SDS011;64340;48.534;-3.036;2023-06-22T00:45:50;3.42;;;2.00;;
75718;SDS011;64340;48.534;-3.036;2023-06-22T00:48:16;2.97;;;1.85;;
75718;SDS011;64340;48.534;-3.036;2023-06-22T00:50:42;3.10;;;1.90;;
75718;SDS011;64340;48.534;-3.036;2023-06-22T00:53:08;3.10;;;2.15;;
75718;SDS011;64340;48.534;-3.036;2023-06-22T00:55:38;5.38;;;2.17;;
75718;SDS011;64340;48.534;-3.036;2023-06-22T00:58:16;3.53;;;2.08;;
75718;SDS011;64340;48.534;-3.036;2023-06-22T01:00:47;3.13;;;2.00;;
75718;SDS011;64340;48.534;-3.036;2023-06-22T01:03:13;2.92;;;1.90;;
75718;SDS011;64340;48.534;-3.036;2023-06-22T01:05:39;3.65;;;2.00;;
75718;SDS011;64340;48.534;-3.036;2023-06-22T01:16:07;2.95;;;1.90;;
75718;SDS011;64340;48.534;-3.036;2023-06-22T01:18:38;3.40;;;2.05;;
75718;SDS011;64340;48.534;-3.036;2023-06-22T01:21:09;2.95;;;1.67;;
75718;SDS011;64340;48.534;-3.036;2023-06-22T01:29:30;3.40;;;2.13;;
75718;SDS011;64340;48.534;-3.036;2023-06-22T01:31:58;3.97;;;2.20;;
75718;SDS011;64340;48.534;-3.036;2023-06-22T01:34:25;3.83;;;2.28;;
75718;SDS011;64340;48.534;-3.036;2023-06-22T01:36:52;3.80;;;2.20;;
75718;SDS011;64340;48.534;-3.036;2023-06-22T01:39:18;4.90;;;2.40;;
75718;SDS011;64340;48.534;-3.036;2023-06-22T01:41:47;3.78;;;2.10;;
75718;SDS011;64340;48.534;-3.036;2023-06-22T01:44:13;3.33;;;2.30;;
75718;SDS011;64340;48.534;-3.036;2023-06-22T01:46:39;4.03;;;2.60;;
75718;SDS011;64340;48.534;-3.036;2023-06-22T01:49:05;5.15;;;2.67;;
75718;SDS011;64340;48.534;-3.036;2023-06-22T01:51:33;3.42;;;2.22;;
75718;SDS011;64340;48.534;-3.036;2023-06-22T01:53:58;4.63;;;2.83;;
75718;SDS011;64340;48.534;-3.036;2023-06-22T01:56:24;5.15;;;2.92;;
75718;SDS011;64340;48.534;-3.036;2023-06-22T01:59:05;4.85;;;2.33;;
75718;SDS011;64340;48.534;-3.036;2023-06-22T02:01:44;4.63;;;2.38;;
75718;SDS011;64340;48.534;-3.036;2023-06-22T02:04:24;3.58;;;2.22;;
75718;SDS011;64340;48.534;-3.036;2023-06-22T02:06:55;4.38;;;2.58;;
75718;SDS011;64340;48.534;-3.036;2023-06-22T02:09:23;6.13;;;2.70;;
75718;SDS011;64340;48.534;-3.036;2023-06-22T02:11:52;4.35;;;2.58;;
75718;SDS011;64340;48.534;-3.036;2023-06-22T02:14:21;3.67;;;2.38;;
75718;SDS011;64340;48.534;-3.036;2023-06-22T02:16:48;4.05;;;2.47;;
75718;SDS011;64340;48.534;-3.036;2023-06-22T02:19:16;5.97;;;2.95;;
75718;SDS011;64340;48.534;-3.036;2023-06-22T02:21:43;5.57;;;2.85;;
75718;SDS011;64340;48.534;-3.036;2023-06-22T02:24:10;5.20;;;2.70;;
75718;SDS011;64340;48.534;-3.036;2023-06-22T02:26:35;4.38;;;2.65;;
75718;SDS011;64340;48.534;-3.036;2023-06-22T02:29:03;4.20;;;2.95;;
75718;SDS011;64340;48.534;-3.036;2023-06-22T02:31:29;5.07;;;2.92;;
75718;SDS011;64340;48.534;-3.036;2023-06-22T02:33:56;6.45;;;2.92;;
75718;SDS011;64340;48.534;-3.036;2023-06-22T02:36:23;6.53;;;3.08;;
75718;SDS011;64340;48.534;-3.036;2023-06-22T02:38:50;5.75;;;3.20;;
75718;SDS011;64340;48.534;-3.036;2023-06-22T02:41:16;4.97;;;2.90;;
75718;SDS011;64340;48.534;-3.036;2023-06-22T02:43:45;4.72;;;2.88;;
75718;SDS011;64340;48.534;-3.036;2023-06-22T02:46:11;3.83;;;2.75;;
75718;SDS011;64340;48.534;-3.036;2023-06-22T02:48:38;4.43;;;2.65;;
75718;SDS011;64340;48.534;-3.036;2023-06-22T02:51:07;3.78;;;2.83;;
75718;SDS011;64340;48.534;-3.036;2023-06-22T02:53:32;4.93;;;2.85;;
75718;SDS011;64340;48.534;-3.036;2023-06-22T02:55:58;5.43;;;3.10;;
75718;SDS011;64340;48.534;-3.036;2023-06-22T02:58:26;4.40;;;2.50;;
75718;SDS011;64340;48.534;-3.036;2023-06-22T03:00:52;5.07;;;2.75;;
75718;SDS011;64340;48.534;-3.036;2023-06-22T03:03:18;5.38;;;2.88;;
75718;SDS011;64340;48.534;-3.036;2023-06-22T03:05:44;4.63;;;2.78;;
75718;SDS011;64340;48.534;-3.036;2023-06-22T03:08:10;5.18;;;2.88;;
75718;SDS011;64340;48.534;-3.036;2023-06-22T03:10:36;5.60;;;2.53;;
75718;SDS011;64340;48.534;-3.036;2023-06-22T03:13:02;4.72;;;2.45;;
75718;SDS011;64340;48.534;-3.036;2023-06-22T03:15:28;3.88;;;2.42;;
75718;SDS011;64340;48.534;-3.036;2023-06-22T03:17:57;4.50;;;2.90;;
75718;SDS011;64340;48.534;-3.036;2023-06-22T03:20:23;5.00;;;2.95;;
75718;SDS011;64340;48.534;-3.036;2023-06-22T03:22:50;4.00;;;2.58;;
75718;SDS011;64340;48.534;-3.036;2023-06-22T03:25:15;3.95;;;2.55;;
75718;SDS011;64340;48.534;-3.036;2023-06-22T03:27:41;4.50;;;2.30;;
75718;SDS011;64340;48.534;-3.036;2023-06-22T03:30:10;4.60;;;2.85;;
75718;SDS011;64340;48.534;-3.036;2023-06-22T03:32:37;3.97;;;2.83;;
75718;SDS011;64340;48.534;-3.036;2023-06-22T03:35:02;4.05;;;2.42;;
75718;SDS011;64340;48.534;-3.036;2023-06-22T03:37:28;5.63;;;2.75;;
75718;SDS011;64340;48.534;-3.036;2023-06-22T03:39:54;4.68;;;2.70;;
75718;SDS011;64340;48.534;-3.036;2023-06-22T03:42:20;4.30;;;2.60;;
75718;SDS011;64340;48.534;-3.036;2023-06-22T03:44:46;4.95;;;2.80;;
75718;SDS011;64340;48.534;-3.036;2023-06-22T03:47:12;4.38;;;3.00;;
75718;SDS011;64340;48.534;-3.036;2023-06-22T03:49:38;4.38;;;2.78;;
75718;SDS011;64340;48.534;-3.036;2023-06-22T03:52:04;4.05;;;2.67;;
75718;SDS011;64340;48.534;-3.036;2023-06-22T03:54:30;4.05;;;2.72;;
75718;SDS011;64340;48.534;-3.036;2023-06-22T03:56:57;4.47;;;2.70;;
75718;SDS011;64340;48.534;-3.036;2023-06-22T03:59:23;4.10;;;2.78;;
75718;SDS011;64340;48.534;-3.036;2023-06-22T04:01:49;5.60;;;2.65;;
75718;SDS011;64340;48.534;-3.036;2023-06-22T04:04:15;3.70;;;2.58;;
75718;SDS011;64340;48.534;-3.036;2023-06-22T04:09:10;5.55;;;2.72;;
75718;SDS011;64340;48.534;-3.036;2023-06-22T04:11:35;4.03;;;2.53;;
75718;SDS011;64340;48.534;-3.036;2023-06-22T04:14:01;7.63;;;2.97;;
75718;SDS011;64340;48.534;-3.036;2023-06-22T04:16:27;4.88;;;2.90;;
75718;SDS011;64340;48.534;-3.036;2023-06-22T04:18:54;5.82;;;3.42;;
75718;SDS011;64340;48.534;-3.036;2023-06-22T04:21:21;4.63;;;2.83;;
75718;SDS011;64340;48.534;-3.036;2023-06-22T04:23:49;11.45;;;6.15;;
75718;SDS011;64340;48.534;-3.036;2023-06-22T04:26:15;11.30;;;6.70;;
75718;SDS011;64340;48.534;-3.036;2023-06-22T04:28:41;12.93;;;6.88;;
75718;SDS011;64340;48.534;-3.036;2023-06-22T04:31:06;14.13;;;7.40;;
75718;SDS011;64340;48.534;-3.036;2023-06-22T04:33:32;15.93;;;7.45;;
75718;SDS011;64340;48.534;-3.036;2023-06-22T04:35:58;14.52;;;8.10;;
75718;SDS011;64340;48.534;-3.036;2023-06-22T04:38:29;16.10;;;7.15;;
75718;SDS011;64340;48.534;-3.036;2023-06-22T04:40:58;14.43;;;7.47;;
75718;SDS011;64340;48.534;-3.036;2023-06-22T04:43:24;15.13;;;7.32;;
75718;SDS011;64340;48.534;-3.036;2023-06-22T04:45:49;15.30;;;7.72;;
75718;SDS011;64340;48.534;-3.036;2023-06-22T04:48:17;12.65;;;6.95;;
75718;SDS011;64340;48.534;-3.036;2023-06-22T04:50:43;16.17;;;7.30;;
75718;SDS011;64340;48.534;-3.036;2023-06-22T04:53:09;13.00;;;7.28;;
75718;SDS011;64340;48.534;-3.036;2023-06-22T04:55:37;17.02;;;7.43;;
75718;SDS011;64340;48.534;-3.036;2023-06-22T05:00:32;14.63;;;6.88;;
75718;SDS011;64340;48.534;-3.036;2023-06-22T05:03:01;14.07;;;6.90;;
75718;SDS011;64340;48.534;-3.036;2023-06-22T05:05:28;11.60;;;6.40;;
75718;SDS011;64340;48.534;-3.036;2023-06-22T05:07:56;15.85;;;7.45;;
75718;SDS011;64340;48.534;-3.036;2023-06-22T05:10:25;14.63;;;6.50;;
75718;SDS011;64340;48.534;-3.036;2023-06-22T05:12:51;12.80;;;7.10;;
75718;SDS011;64340;48.534;-3.036;2023-06-22T05:15:17;12.65;;;6.78;;
75718;SDS011;64340;48.534;-3.036;2023-06-22T05:17:48;12.27;;;6.55;;
75718;SDS011;64340;48.534;-3.036;2023-06-22T05:20:15;13.85;;;6.35;;
75718;SDS011;64340;48.534;-3.036;2023-06-22T05:22:43;13.43;;;6.30;;
75718;SDS011;64340;48.534;-3.036;2023-06-22T05:25:09;10.82;;;5.60;;
75718;SDS011;64340;48.534;-3.036;2023-06-22T05:27:36;10.70;;;5.25;;
75718;SDS011;64340;48.534;-3.036;2023-06-22T05:32:32;11.05;;;5.05;;
75718;SDS011;64340;48.534;-3.036;2023-06-22T05:34:58;11.55;;;5.40;;
75718;SDS011;64340;48.534;-3.036;2023-06-22T05:37:26;11.65;;;5.68;;
75718;SDS011;64340;48.534;-3.036;2023-06-22T05:39:54;10.98;;;4.75;;
75718;SDS011;64340;48.534;-3.036;2023-06-22T05:42:20;11.90;;;5.28;;
75718;SDS011;64340;48.534;-3.036;2023-06-22T05:44:47;11.18;;;5.38;;
75718;SDS011;64340;48.534;-3.036;2023-06-22T05:47:13;7.88;;;4.78;;
75718;SDS011;64340;48.534;-3.036;2023-06-22T05:49:41;9.82;;;4.93;;
75718;SDS011;64340;48.534;-3.036;2023-06-22T05:52:06;11.40;;;5.00;;
75718;SDS011;64340;48.534;-3.036;2023-06-22T05:54:32;11.00;;;5.03;;
75718;SDS011;64340;48.534;-3.036;2023-06-22T05:56:58;11.50;;;5.18;;
75718;SDS011;64340;48.534;-3.036;2023-06-22T05:59:24;11.70;;;5.07;;
75718;SDS011;64340;48.534;-3.036;2023-06-22T06:01:49;9.45;;;4.80;;
75718;SDS011;64340;48.534;-3.036;2023-06-22T06:04:16;8.88;;;4.95;;
75718;SDS011;64340;48.534;-3.036;2023-06-22T06:06:43;8.30;;;5.32;;
75718;SDS011;64340;48.534;-3.036;2023-06-22T06:09:09;9.95;;;5.28;;
75718;SDS011;64340;48.534;-3.036;2023-06-22T06:11:36;7.50;;;4.43;;
75718;SDS011;64340;48.534;-3.036;2023-06-22T06:14:02;10.38;;;5.15;;
75718;SDS011;64340;48.534;-3.036;2023-06-22T06:16:28;8.43;;;4.82;;
75718;SDS011;64340;48.534;-3.036;2023-06-22T06:18:54;8.52;;;4.53;;
75718;SDS011;64340;48.534;-3.036;2023-06-22T06:21:21;11.30;;;4.82;;
75718;SDS011;64340;48.534;-3.036;2023-06-22T06:23:47;8.02;;;4.03;;
75718;SDS011;64340;48.534;-3.036;2023-06-22T06:26:13;9.68;;;5.40;;
75718;SDS011;64340;48.534;-3.036;2023-06-22T06:28:41;6.43;;;4.07;;
75718;SDS011;64340;48.534;-3.036;2023-06-22T06:31:08;9.02;;;4.57;;
75718;SDS011;64340;48.534;-3.036;2023-06-22T06:33:34;8.07;;;4.03;;
75718;SDS011;64340;48.534;-3.036;2023-06-22T06:36:00;8.10;;;4.40;;
75718;SDS011;64340;48.534;-3.036;2023-06-22T06:38:28;8.05;;;4.35;;
75718;SDS011;64340;48.534;-3.036;2023-06-22T06:40:55;6.78;;;3.78;;
75718;SDS011;64340;48.534;-3.036;2023-06-22T06:43:21;7.28;;;4.03;;
75718;SDS011;64340;48.534;-3.036;2023-06-22T06:45:47;8.88;;;4.00;;
75718;SDS011;64340;48.534;-3.036;2023-06-22T06:48:13;8.25;;;3.70;;
75718;SDS011;64340;48.534;-3.036;2023-06-22T06:50:39;6.82;;;3.78;;
75718;SDS011;64340;48.534;-3.036;2023-06-22T06:53:05;7.53;;;3.45;;
75718;SDS011;64340;48.534;-3.036;2023-06-22T06:55:32;5.72;;;3.25;;
75718;SDS011;64340;48.534;-3.036;2023-06-22T06:57:58;5.90;;;3.45;;
75718;SDS011;64340;48.534;-3.036;2023-06-22T07:00:24;6.88;;;3.47;;
75718;SDS011;64340;48.534;-3.036;2023-06-22T07:02:50;5.55;;;3.95;;
75718;SDS011;64340;48.534;-3.036;2023-06-22T07:05:18;7.43;;;4.15;;
75718;SDS011;64340;48.534;-3.036;2023-06-22T07:07:44;6.95;;;3.90;;
75718;SDS011;64340;48.534;-3.036;2023-06-22T07:10:10;6.28;;;3.40;;
75718;SDS011;64340;48.534;-3.036;2023-06-22T07:12:35;5.50;;;3.50;;
75718;SDS011;64340;48.534;-3.036;2023-06-22T07:15:05;4.93;;;3.53;;
75718;SDS011;64340;48.534;-3.036;2023-06-22T07:17:35;5.35;;;3.63;;
75718;SDS011;64340;48.534;-3.036;2023-06-22T07:20:02;6.93;;;3.45;;
75718;SDS011;64340;48.534;-3.036;2023-06-22T07:22:33;5.53;;;3.80;;
75718;SDS011;64340;48.534;-3.036;2023-06-22T07:24:59;5.72;;;3.88;;
75718;SDS011;64340;48.534;-3.036;2023-06-22T07:27:24;6.03;;;3.83;;
75718;SDS011;64340;48.534;-3.036;2023-06-22T07:29:50;6.65;;;4.05;;
75718;SDS011;64340;48.534;-3.036;2023-06-22T07:32:17;7.90;;;4.30;;
75718;SDS011;64340;48.534;-3.036;2023-06-22T07:34:43;7.95;;;4.35;;
75718;SDS011;64340;48.534;-3.036;2023-06-22T07:37:09;6.18;;;4.13;;
75718;SDS011;64340;48.534;-3.036;2023-06-22T07:39:35;5.53;;;4.20;;
75718;SDS011;64340;48.534;-3.036;2023-06-22T07:42:02;6.07;;;3.83;;
75718;SDS011;64340;48.534;-3.036;2023-06-22T07:44:28;5.75;;;4.10;;
75718;SDS011;64340;48.534;-3.036;2023-06-22T07:46:54;6.93;;;4.15;;
75718;SDS011;64340;48.534;-3.036;2023-06-22T07:49:20;7.15;;;4.38;;
75718;SDS011;64340;48.534;-3.036;2023-06-22T07:51:46;5.85;;;3.92;;
75718;SDS011;64340;48.534;-3.036;2023-06-22T07:54:11;5.55;;;3.92;;
75718;SDS011;64340;48.534;-3.036;2023-06-22T07:56:37;7.05;;;4.28;;
75718;SDS011;64340;48.534;-3.036;2023-06-22T07:59:03;6.07;;;4.15;;
75718;SDS011;64340;48.534;-3.036;2023-06-22T08:01:29;5.60;;;4.07;;
75718;SDS011;64340;48.534;-3.036;2023-06-22T08:03:55;5.57;;;3.80;;
75718;SDS011;64340;48.534;-3.036;2023-06-22T08:06:23;6.38;;;3.70;;
75718;SDS011;64340;48.534;-3.036;2023-06-22T08:08:49;5.50;;;3.70;;
75718;SDS011;64340;48.534;-3.036;2023-06-22T08:11:17;9.30;;;4.53;;
75718;SDS011;64340;48.534;-3.036;2023-06-22T08:13:43;7.70;;;3.83;;
75718;SDS011;64340;48.534;-3.036;2023-06-22T08:16:09;7.15;;;3.83;;
75718;SDS011;64340;48.534;-3.036;2023-06-22T08:18:35;5.72;;;3.83;;
75718;SDS011;64340;48.534;-3.036;2023-06-22T08:21:01;6.05;;;3.83;;
75718;SDS011;64340;48.534;-3.036;2023-06-22T08:23:27;4.97;;;3.40;;
75718;SDS011;64340;48.534;-3.036;2023-06-22T08:25:54;7.05;;;4.05;;
75718;SDS011;64340;48.534;-3.036;2023-06-22T08:28:20;7.07;;;3.33;;
75718;SDS011;64340;48.534;-3.036;2023-06-22T08:30:46;5.65;;;3.60;;
75718;SDS011;64340;48.534;-3.036;2023-06-22T08:33:12;5.00;;;3.75;;
75718;SDS011;64340;48.534;-3.036;2023-06-22T08:35:38;4.95;;;3.72;;
75718;SDS011;64340;48.534;-3.036;2023-06-22T08:38:04;4.90;;;3.08;;
75718;SDS011;64340;48.534;-3.036;2023-06-22T08:40:29;4.97;;;3.20;;
75718;SDS011;64340;48.534;-3.036;2023-06-22T08:42:55;6.63;;;3.60;;
75718;SDS011;64340;48.534;-3.036;2023-06-22T08:45:21;4.50;;;2.80;;
75718;SDS011;64340;48.534;-3.036;2023-06-22T08:47:47;5.63;;;3.30;;
75718;SDS011;64340;48.534;-3.036;2023-06-22T08:50:13;4.88;;;3.25;;
75718;SDS011;64340;48.534;-3.036;2023-06-22T08:52:39;6.38;;;3.13;;
75718;SDS011;64340;48.534;-3.036;2023-06-22T08:55:09;5.35;;;3.33;;
75718;SDS011;64340;48.534;-3.036;2023-06-22T08:57:35;6.25;;;3.08;;
75718;SDS011;64340;48.534;-3.036;2023-06-22T09:00:06;5.18;;;3.00;;
75718;SDS011;64340;48.534;-3.036;2023-06-22T09:02:45;5.35;;;3.47;;
75718;SDS011;64340;48.534;-3.036;2023-06-22T09:05:14;4.22;;;3.13;;
75718;SDS011;64340;48.534;-3.036;2023-06-22T09:07:42;4.53;;;2.72;;
75718;SDS011;64340;48.534;-3.036;2023-06-22T09:10:08;5.65;;;3.67;;
75718;SDS011;64340;48.534;-3.036;2023-06-22T09:12:34;5.78;;;3.38;;
75718;SDS011;64340;48.534;-3.036;2023-06-22T09:15:02;5.82;;;3.55;;
75718;SDS011;64340;48.534;-3.036;2023-06-22T09:17:28;5.50;;;3.47;;
75718;SDS011;64340;48.534;-3.036;2023-06-22T09:19:54;4.95;;;3.10;;
75718;SDS011;64340;48.534;-3.036;2023-06-22T09:22:20;5.55;;;3.28;;
75718;SDS011;64340;48.534;-3.036;2023-06-22T09:24:46;5.38;;;3.33;;
75718;SDS011;64340;48.534;-3.036;2023-06-22T09:27:13;5.68;;;3.30;;
75718;SDS011;64340;48.534;-3.036;2023-06-22T09:29:39;4.90;;;3.20;;
75718;SDS011;64340;48.534;-3.036;2023-06-22T09:32:05;5.43;;;3.30;;
75718;SDS011;64340;48.534;-3.036;2023-06-22T09:34:31;8.23;;;3.75;;
75718;SDS011;64340;48.534;-3.036;2023-06-22T09:36:57;5.22;;;3.00;;
75718;SDS011;64340;48.534;-3.036;2023-06-22T09:39:25;4.85;;;3.25;;
75718;SDS011;64340;48.534;-3.036;2023-06-22T09:41:51;5.00;;;3.08;;
75718;SDS011;64340;48.534;-3.036;2023-06-22T09:44:17;4.53;;;2.70;;
75718;SDS011;64340;48.534;-3.036;2023-06-22T09:46:42;7.15;;;3.55;;
75718;SDS011;64340;48.534;-3.036;2023-06-22T09:49:08;5.78;;;3.42;;
75718;SDS011;64340;48.534;-3.036;2023-06-22T09:51:34;5.43;;;2.65;;
75718;SDS011;64340;48.534;-3.036;2023-06-22T09:54:00;5.00;;;2.85;;
75718;SDS011;64340;48.534;-3.036;2023-06-22T09:56:25;4.55;;;2.80;;
75718;SDS011;64340;48.534;-3.036;2023-06-22T09:58:53;5.32;;;3.28;;
75718;SDS011;64340;48.534;-3.036;2023-06-22T10:01:19;4.53;;;2.92;;
75718;SDS011;64340;48.534;-3.036;2023-06-22T10:03:45;5.63;;;2.83;;
75718;SDS011;64340;48.534;-3.036;2023-06-22T10:06:11;4.82;;;2.63;;
75718;SDS011;64340;48.534;-3.036;2023-06-22T10:08:37;4.25;;;2.50;;
75718;SDS011;64340;48.534;-3.036;2023-06-22T10:11:04;5.00;;;2.50;;
75718;SDS011;64340;48.534;-3.036;2023-06-22T10:13:30;4.57;;;2.40;;
75718;SDS011;64340;48.534;-3.036;2023-06-22T10:15:56;6.25;;;2.40;;
75718;SDS011;64340;48.534;-3.036;2023-06-22T10:18:22;4.93;;;2.70;;
75718;SDS011;64340;48.534;-3.036;2023-06-22T10:20:48;5.65;;;2.90;;
75718;SDS011;64340;48.534;-3.036;2023-06-22T10:23:18;5.25;;;2.85;;
75718;SDS011;64340;48.534;-3.036;2023-06-22T10:25:45;5.55;;;3.13;;
75718;SDS011;64340;48.534;-3.036;2023-06-22T10:28:11;4.40;;;2.45;;
75718;SDS011;64340;48.534;-3.036;2023-06-22T10:30:37;6.20;;;2.80;;
75718;SDS011;64340;48.534;-3.036;2023-06-22T10:33:07;5.05;;;2.50;;
75718;SDS011;64340;48.534;-3.036;2023-06-22T10:35:33;5.55;;;2.50;;
75718;SDS011;64340;48.534;-3.036;2023-06-22T10:37:59;7.72;;;2.92;;
75718;SDS011;64340;48.534;-3.036;2023-06-22T10:40:25;4.43;;;2.45;;
75718;SDS011;64340;48.534;-3.036;2023-06-22T10:42:51;5.95;;;2.40;;
75718;SDS011;64340;48.534;-3.036;2023-06-22T10:45:16;3.97;;;2.33;;
75718;SDS011;64340;48.534;-3.036;2023-06-22T10:47:42;4.30;;;2.20;;
75718;SDS011;64340;48.534;-3.036;2023-06-22T10:50:08;3.50;;;2.05;;
75718;SDS011;64340;48.534;-3.036;2023-06-22T10:52:34;3.05;;;1.92;;
75718;SDS011;64340;48.534;-3.036;2023-06-22T10:55:00;4.07;;;2.30;;
75718;SDS011;64340;48.534;-3.036;2023-06-22T10:57:26;4.95;;;2.38;;
75718;SDS011;64340;48.534;-3.036;2023-06-22T10:59:52;4.85;;;2.70;;
75718;SDS011;64340;48.534;-3.036;2023-06-22T11:02:18;4.57;;;2.42;;
75718;SDS011;64340;48.534;-3.036;2023-06-22T11:04:44;6.10;;;2.58;;
75718;SDS011;64340;48.534;-3.036;2023-06-22T11:07:11;4.82;;;2.13;;
75718;SDS011;64340;48.534;-3.036;2023-06-22T11:09:36;3.90;;;2.63;;
75718;SDS011;64340;48.534;-3.036;2023-06-22T11:12:03;4.50;;;2.28;;
75718;SDS011;64340;48.534;-3.036;2023-06-22T11:14:29;4.60;;;2.53;;
75718;SDS011;64340;48.534;-3.036;2023-06-22T11:16:55;3.95;;;2.55;;
75718;SDS011;64340;48.534;-3.036;2023-06-22T11:19:21;5.35;;;2.45;;
75718;SDS011;64340;48.534;-3.036;2023-06-22T11:21:47;4.05;;;2.65;;
75718;SDS011;64340;48.534;-3.036;2023-06-22T11:24:12;3.58;;;2.20;;
75718;SDS011;64340;48.534;-3.036;2023-06-22T11:26:38;4.28;;;2.50;;
75718;SDS011;64340;48.534;-3.036;2023-06-22T11:29:04;3.42;;;2.13;;
75718;SDS011;64340;48.534;-3.036;2023-06-22T11:31:31;3.72;;;2.42;;
75718;SDS011;64340;48.534;-3.036;2023-06-22T11:33:57;3.92;;;2.13;;
75718;SDS011;64340;48.534;-3.036;2023-06-22T11:36:23;4.68;;;2.50;;
75718;SDS011;64340;48.534;-3.036;2023-06-22T11:38:50;3.90;;;2.35;;
75718;SDS011;64340;48.534;-3.036;2023-06-22T11:41:16;3.70;;;2.42;;
75718;SDS011;64340;48.534;-3.036;2023-06-22T11:43:42;4.05;;;2.60;;
75718;SDS011;64340;48.534;-3.036;2023-06-22T11:46:08;4.72;;;2.60;;
75718;SDS011;64340;48.534;-3.036;2023-06-22T11:48:34;4.43;;;2.63;;
75718;SDS011;64340;48.534;-3.036;2023-06-22T11:51:01;5.75;;;2.70;;
75718;SDS011;64340;48.534;-3.036;2023-06-22T11:53:28;3.92;;;2.15;;
75718;SDS011;64340;48.534;-3.036;2023-06-22T11:55:54;4.10;;;2.42;;
75718;SDS011;64340;48.534;-3.036;2023-06-22T11:58:21;3.13;;;2.30;;
75718;SDS011;64340;48.534;-3.036;2023-06-22T12:00:47;5.25;;;2.85;;
75718;SDS011;64340;48.534;-3.036;2023-06-22T12:03:13;3.97;;;2.42;;
75718;SDS011;64340;48.534;-3.036;2023-06-22T12:05:42;3.90;;;2.38;;
75718;SDS011;64340;48.534;-3.036;2023-06-22T12:08:08;5.53;;;2.78;;
75718;SDS011;64340;48.534;-3.036;2023-06-22T12:10:34;4.68;;;3.03;;
75718;SDS011;64340;48.534;-3.036;2023-06-22T12:13:00;5.03;;;2.58;;
75718;SDS011;64340;48.534;-3.036;2023-06-22T12:15:26;6.18;;;2.70;;
75718;SDS011;64340;48.534;-3.036;2023-06-22T12:17:52;3.92;;;2.83;;
75718;SDS011;64340;48.534;-3.036;2023-06-22T12:20:18;4.68;;;3.10;;
75718;SDS011;64340;48.534;-3.036;2023-06-22T12:22:44;4.40;;;2.47;;
75718;SDS011;64340;48.534;-3.036;2023-06-22T12:25:10;5.53;;;2.83;;
75718;SDS011;64340;48.534;-3.036;2023-06-22T12:27:36;3.35;;;2.22;;
75718;SDS011;64340;48.534;-3.036;2023-06-22T12:30:03;3.85;;;2.75;;
75718;SDS011;64340;48.534;-3.036;2023-06-22T12:32:29;4.80;;;2.63;;
75718;SDS011;64340;48.534;-3.036;2023-06-22T12:34:55;3.72;;;2.05;;
75718;SDS011;64340;48.534;-3.036;2023-06-22T12:37:21;4.30;;;2.67;;
75718;SDS011;64340;48.534;-3.036;2023-06-22T12:39:47;3.72;;;2.30;;
75718;SDS011;64340;48.534;-3.036;2023-06-22T12:42:14;4.20;;;2.35;;
75718;SDS011;64340;48.534;-3.036;2023-06-22T12:44:41;4.95;;;2.70;;
75718;SDS011;64340;48.534;-3.036;2023-06-22T12:47:06;3.80;;;2.38;;
75718;SDS011;64340;48.534;-3.036;2023-06-22T12:49:36;4.18;;;2.70;;
75718;SDS011;64340;48.534;-3.036;2023-06-22T12:52:02;3.80;;;2.60;;
75718;SDS011;64340;48.534;-3.036;2023-06-22T12:54:29;4.43;;;2.70;;
75718;SDS011;64340;48.534;-3.036;2023-06-22T12:56:58;4.53;;;2.38;;
75718;SDS011;64340;48.534;-3.036;2023-06-22T12:59:24;4.30;;;2.90;;
75718;SDS011;64340;48.534;-3.036;2023-06-22T13:01:50;4.40;;;2.85;;
75718;SDS011;64340;48.534;-3.036;2023-06-22T13:04:15;4.70;;;2.72;;
75718;SDS011;64340;48.534;-3.036;2023-06-22T13:06:43;5.03;;;2.60;;
75718;SDS011;64340;48.534;-3.036;2023-06-22T13:09:13;4.20;;;2.80;;
75718;SDS011;64340;48.534;-3.036;2023-06-22T13:11:39;3.65;;;2.50;;
75718;SDS011;64340;48.534;-3.036;2023-06-22T13:14:06;4.18;;;2.55;;
75718;SDS011;64340;48.534;-3.036;2023-06-22T13:16:32;4.13;;;2.78;;
75718;SDS011;64340;48.534;-3.036;2023-06-22T13:18:58;3.88;;;2.42;;
75718;SDS011;64340;48.534;-3.036;2023-06-22T13:21:23;5.53;;;2.42;;
75718;SDS011;64340;48.534;-3.036;2023-06-22T13:23:49;4.47;;;2.58;;
75718;SDS011;64340;48.534;-3.036;2023-06-22T13:26:15;4.75;;;2.58;;
75718;SDS011;64340;48.534;-3.036;2023-06-22T13:28:41;4.07;;;2.50;;
75718;SDS011;64340;48.534;-3.036;2023-06-22T13:31:07;5.47;;;2.60;;
75718;SDS011;64340;48.534;-3.036;2023-06-22T13:33:32;3.75;;;2.25;;
75718;SDS011;64340;48.534;-3.036;2023-06-22T13:35:58;3.25;;;2.10;;
75718;SDS011;64340;48.534;-3.036;2023-06-22T13:38:24;4.07;;;2.40;;
75718;SDS011;64340;48.534;-3.036;2023-06-22T13:40:50;4.63;;;2.55;;
75718;SDS011;64340;48.534;-3.036;2023-06-22T13:43:16;4.63;;;2.65;;
75718;SDS011;64340;48.534;-3.036;2023-06-22T13:45:42;4.60;;;2.67;;
75718;SDS011;64340;48.534;-3.036;2023-06-22T13:48:08;3.50;;;2.25;;
75718;SDS011;64340;48.534;-3.036;2023-06-22T13:50:40;3.55;;;2.13;;
75718;SDS011;64340;48.534;-3.036;2023-06-22T13:53:06;4.22;;;2.22;;
75718;SDS011;64340;48.534;-3.036;2023-06-22T13:55:31;3.72;;;2.33;;
75718;SDS011;64340;48.534;-3.036;2023-06-22T13:57:57;4.30;;;2.55;;
75718;SDS011;64340;48.534;-3.036;2023-06-22T14:00:24;3.72;;;2.25;;
75718;SDS011;64340;48.534;-3.036;2023-06-22T14:02:49;5.13;;;2.40;;
75718;SDS011;64340;48.534;-3.036;2023-06-22T14:05:16;3.70;;;2.42;;
75718;SDS011;64340;48.534;-3.036;2023-06-22T14:07:42;6.15;;;2.63;;
75718;SDS011;64340;48.534;-3.036;2023-06-22T14:10:08;4.20;;;2.47;;
75718;SDS011;64340;48.534;-3.036;2023-06-22T14:12:35;3.30;;;2.38;;
75718;SDS011;64340;48.534;-3.036;2023-06-22T14:15:04;4.90;;;2.53;;
75718;SDS011;64340;48.534;-3.036;2023-06-22T14:17:30;4.07;;;2.55;;
75718;SDS011;64340;48.534;-3.036;2023-06-22T14:19:57;3.53;;;2.22;;
75718;SDS011;64340;48.534;-3.036;2023-06-22T14:22:23;4.80;;;2.30;;
75718;SDS011;64340;48.534;-3.036;2023-06-22T14:24:49;4.28;;;2.50;;
75718;SDS011;64340;48.534;-3.036;2023-06-22T14:27:15;5.13;;;2.33;;
75718;SDS011;64340;48.534;-3.036;2023-06-22T14:29:41;4.50;;;2.50;;
75718;SDS011;64340;48.534;-3.036;2023-06-22T14:32:07;4.32;;;2.40;;
75718;SDS011;64340;48.534;-3.036;2023-06-22T14:34:34;3.63;;;2.17;;
75718;SDS011;64340;48.534;-3.036;2023-06-22T14:37:01;4.05;;;2.10;;
75718;SDS011;64340;48.534;-3.036;2023-06-22T14:39:27;4.45;;;2.30;;
75718;SDS011;64340;48.534;-3.036;2023-06-22T14:41:53;3.47;;;2.40;;
75718;SDS011;64340;48.534;-3.036;2023-06-22T14:44:19;3.45;;;2.30;;
75718;SDS011;64340;48.534;-3.036;2023-06-22T14:46:45;4.00;;;2.40;;
75718;SDS011;64340;48.534;-3.036;2023-06-22T14:49:11;3.53;;;2.20;;
75718;SDS011;64340;48.534;-3.036;2023-06-22T14:51:37;5.03;;;2.40;;